sensor_id;sensor_type;location;lat;lon;timestamp;P1;durP1;ratioP1;P2;durP2;ratioP2
60038;SDS011;45916;52.734;6.544;2023-04-28T00:01:59;19.77;;;15.20;;
60038;SDS011;45916;52.734;6.544;2023-04-28T00:04:25;21.92;;;16.05;;
60038;SDS011;45916;52.734;6.544;2023-04-28T00:06:51;23.30;;;16.92;;
60038;SDS011;45916;52.734;6.544;2023-04-28T00:09:16;23.15;;;15.75;;
60038;SDS011;45916;52.734;6.544;2023-04-28T00:11:45;22.55;;;16.05;;
60038;SDS011;45916;52.734;6.544;2023-04-28T00:14:11;22.40;;;16.02;;
60038;SDS011;45916;52.734;6.544;2023-04-28T00:16:37;23.08;;;16.25;;
60038;SDS011;45916;52.734;6.544;2023-04-28T00:19:03;24.25;;;17.35;;
60038;SDS011;45916;52.734;6.544;2023-04-28T00:21:29;20.92;;;15.65;;
60038;SDS011;45916;52.734;6.544;2023-04-28T00:23:54;23.20;;;16.02;;
60038;SDS011;45916;52.734;6.544;2023-04-28T00:26:20;18.55;;;15.23;;
60038;SDS011;45916;52.734;6.544;2023-04-28T00:28:46;25.02;;;16.58;;
60038;SDS011;45916;52.734;6.544;2023-04-28T00:31:12;20.67;;;15.80;;
60038;SDS011;45916;52.734;6.544;2023-04-28T00:33:40;21.08;;;16.58;;
60038;SDS011;45916;52.734;6.544;2023-04-28T00:36:06;21.02;;;15.80;;
60038;SDS011;45916;52.734;6.544;2023-04-28T00:38:32;20.60;;;16.45;;
60038;SDS011;45916;52.734;6.544;2023-04-28T00:40:58;21.92;;;15.90;;
60038;SDS011;45916;52.734;6.544;2023-04-28T00:43:23;22.05;;;16.85;;
60038;SDS011;45916;52.734;6.544;2023-04-28T00:45:49;23.25;;;16.00;;
60038;SDS011;45916;52.734;6.544;2023-04-28T00:48:16;21.95;;;15.18;;
60038;SDS011;45916;52.734;6.544;2023-04-28T00:50:42;19.98;;;17.05;;
60038;SDS011;45916;52.734;6.544;2023-04-28T00:53:09;20.98;;;14.90;;
60038;SDS011;45916;52.734;6.544;2023-04-28T00:55:36;18.38;;;14.50;;
60038;SDS011;45916;52.734;6.544;2023-04-28T00:58:02;20.08;;;16.27;;
60038;SDS011;45916;52.734;6.544;2023-04-28T01:00:32;19.50;;;15.18;;
60038;SDS011;45916;52.734;6.544;2023-04-28T01:02:58;21.67;;;16.48;;
60038;SDS011;45916;52.734;6.544;2023-04-28T01:05:24;20.65;;;16.13;;
60038;SDS011;45916;52.734;6.544;2023-04-28T01:07:50;20.70;;;15.40;;
60038;SDS011;45916;52.734;6.544;2023-04-28T01:10:16;21.38;;;16.95;;
60038;SDS011;45916;52.734;6.544;2023-04-28T01:12:42;20.40;;;15.27;;
60038;SDS011;45916;52.734;6.544;2023-04-28T01:15:15;23.52;;;16.83;;
60038;SDS011;45916;52.734;6.544;2023-04-28T01:17:42;19.98;;;14.93;;
60038;SDS011;45916;52.734;6.544;2023-04-28T01:20:09;21.27;;;16.20;;
60038;SDS011;45916;52.734;6.544;2023-04-28T01:22:35;20.83;;;15.18;;
60038;SDS011;45916;52.734;6.544;2023-04-28T01:25:00;18.75;;;15.02;;
60038;SDS011;45916;52.734;6.544;2023-04-28T01:27:28;22.58;;;15.77;;
60038;SDS011;45916;52.734;6.544;2023-04-28T01:29:53;20.92;;;15.80;;
60038;SDS011;45916;52.734;6.544;2023-04-28T01:32:19;20.42;;;15.77;;
60038;SDS011;45916;52.734;6.544;2023-04-28T01:34:45;22.30;;;15.43;;
60038;SDS011;45916;52.734;6.544;2023-04-28T01:37:11;19.83;;;14.68;;
60038;SDS011;45916;52.734;6.544;2023-04-28T01:39:37;22.65;;;14.70;;
60038;SDS011;45916;52.734;6.544;2023-04-28T01:42:03;20.55;;;14.45;;
60038;SDS011;45916;52.734;6.544;2023-04-28T01:44:28;19.70;;;14.48;;
60038;SDS011;45916;52.734;6.544;2023-04-28T01:46:54;18.15;;;13.93;;
60038;SDS011;45916;52.734;6.544;2023-04-28T01:49:20;19.58;;;14.35;;
60038;SDS011;45916;52.734;6.544;2023-04-28T01:51:46;20.75;;;14.63;;
60038;SDS011;45916;52.734;6.544;2023-04-28T01:54:14;18.50;;;14.38;;
60038;SDS011;45916;52.734;6.544;2023-04-28T01:56:40;18.05;;;14.45;;
60038;SDS011;45916;52.734;6.544;2023-04-28T01:59:05;18.85;;;14.30;;
60038;SDS011;45916;52.734;6.544;2023-04-28T02:01:31;20.17;;;14.68;;
60038;SDS011;45916;52.734;6.544;2023-04-28T02:03:57;19.77;;;15.10;;
60038;SDS011;45916;52.734;6.544;2023-04-28T02:06:22;19.50;;;14.40;;
60038;SDS011;45916;52.734;6.544;2023-04-28T02:08:48;19.60;;;13.85;;
60038;SDS011;45916;52.734;6.544;2023-04-28T02:11:14;20.55;;;14.75;;
60038;SDS011;45916;52.734;6.544;2023-04-28T02:13:39;18.33;;;14.80;;
60038;SDS011;45916;52.734;6.544;2023-04-28T02:16:05;20.67;;;15.15;;
60038;SDS011;45916;52.734;6.544;2023-04-28T02:18:31;17.65;;;13.85;;
60038;SDS011;45916;52.734;6.544;2023-04-28T02:20:57;21.95;;;13.93;;
60038;SDS011;45916;52.734;6.544;2023-04-28T02:23:23;18.83;;;14.68;;
60038;SDS011;45916;52.734;6.544;2023-04-28T02:25:48;23.17;;;15.48;;
60038;SDS011;45916;52.734;6.544;2023-04-28T02:28:14;19.88;;;14.85;;
60038;SDS011;45916;52.734;6.544;2023-04-28T02:30:39;23.35;;;14.82;;
60038;SDS011;45916;52.734;6.544;2023-04-28T02:33:05;20.23;;;14.90;;
60038;SDS011;45916;52.734;6.544;2023-04-28T02:35:31;19.05;;;14.93;;
60038;SDS011;45916;52.734;6.544;2023-04-28T02:37:57;16.40;;;13.50;;
60038;SDS011;45916;52.734;6.544;2023-04-28T02:40:22;21.00;;;14.75;;
60038;SDS011;45916;52.734;6.544;2023-04-28T02:42:48;21.23;;;15.65;;
60038;SDS011;45916;52.734;6.544;2023-04-28T02:45:14;22.58;;;15.32;;
60038;SDS011;45916;52.734;6.544;2023-04-28T02:47:39;21.73;;;15.05;;
60038;SDS011;45916;52.734;6.544;2023-04-28T02:50:05;21.50;;;15.90;;
60038;SDS011;45916;52.734;6.544;2023-04-28T02:52:31;19.80;;;15.25;;
60038;SDS011;45916;52.734;6.544;2023-04-28T02:54:57;19.73;;;15.40;;
60038;SDS011;45916;52.734;6.544;2023-04-28T02:57:23;23.52;;;16.05;;
60038;SDS011;45916;52.734;6.544;2023-04-28T02:59:49;20.30;;;15.00;;
60038;SDS011;45916;52.734;6.544;2023-04-28T03:02:15;21.80;;;14.95;;
60038;SDS011;45916;52.734;6.544;2023-04-28T03:04:41;20.35;;;15.60;;
60038;SDS011;45916;52.734;6.544;2023-04-28T03:07:06;22.08;;;15.88;;
60038;SDS011;45916;52.734;6.544;2023-04-28T03:09:32;21.98;;;15.73;;
60038;SDS011;45916;52.734;6.544;2023-04-28T03:11:58;20.58;;;15.73;;
60038;SDS011;45916;52.734;6.544;2023-04-28T03:14:23;18.75;;;14.23;;
60038;SDS011;45916;52.734;6.544;2023-04-28T03:16:49;21.67;;;14.60;;
60038;SDS011;45916;52.734;6.544;2023-04-28T03:19:15;22.00;;;15.90;;
60038;SDS011;45916;52.734;6.544;2023-04-28T03:21:41;22.67;;;16.15;;
60038;SDS011;45916;52.734;6.544;2023-04-28T03:24:06;21.05;;;16.35;;
60038;SDS011;45916;52.734;6.544;2023-04-28T03:26:32;21.45;;;15.85;;
60038;SDS011;45916;52.734;6.544;2023-04-28T03:28:59;22.27;;;15.23;;
60038;SDS011;45916;52.734;6.544;2023-04-28T03:31:24;22.13;;;14.85;;
60038;SDS011;45916;52.734;6.544;2023-04-28T03:33:50;23.45;;;15.43;;
60038;SDS011;45916;52.734;6.544;2023-04-28T03:36:16;20.92;;;15.25;;
60038;SDS011;45916;52.734;6.544;2023-04-28T03:38:42;20.75;;;16.50;;
60038;SDS011;45916;52.734;6.544;2023-04-28T03:41:07;19.27;;;14.80;;
60038;SDS011;45916;52.734;6.544;2023-04-28T03:43:33;19.75;;;15.57;;
60038;SDS011;45916;52.734;6.544;2023-04-28T03:46:01;21.58;;;16.65;;
60038;SDS011;45916;52.734;6.544;2023-04-28T03:48:28;22.77;;;15.15;;
60038;SDS011;45916;52.734;6.544;2023-04-28T03:50:53;24.10;;;16.60;;
60038;SDS011;45916;52.734;6.544;2023-04-28T03:53:19;22.83;;;14.95;;
60038;SDS011;45916;52.734;6.544;2023-04-28T03:55:45;20.60;;;15.43;;
60038;SDS011;45916;52.734;6.544;2023-04-28T03:58:10;20.48;;;15.38;;
60038;SDS011;45916;52.734;6.544;2023-04-28T04:00:36;19.80;;;14.88;;
60038;SDS011;45916;52.734;6.544;2023-04-28T04:03:02;20.90;;;16.70;;
60038;SDS011;45916;52.734;6.544;2023-04-28T04:05:27;20.33;;;15.10;;
60038;SDS011;45916;52.734;6.544;2023-04-28T04:07:53;20.73;;;15.45;;
60038;SDS011;45916;52.734;6.544;2023-04-28T04:10:19;24.33;;;15.48;;
60038;SDS011;45916;52.734;6.544;2023-04-28T04:12:45;21.30;;;15.75;;
60038;SDS011;45916;52.734;6.544;2023-04-28T04:15:10;20.73;;;15.20;;
60038;SDS011;45916;52.734;6.544;2023-04-28T04:17:36;20.80;;;15.50;;
60038;SDS011;45916;52.734;6.544;2023-04-28T04:20:02;20.70;;;15.57;;
60038;SDS011;45916;52.734;6.544;2023-04-28T04:22:28;19.60;;;15.23;;
60038;SDS011;45916;52.734;6.544;2023-04-28T04:24:54;21.17;;;16.25;;
60038;SDS011;45916;52.734;6.544;2023-04-28T04:27:20;21.20;;;15.52;;
60038;SDS011;45916;52.734;6.544;2023-04-28T04:29:45;22.13;;;14.80;;
60038;SDS011;45916;52.734;6.544;2023-04-28T04:32:11;21.75;;;16.83;;
60038;SDS011;45916;52.734;6.544;2023-04-28T04:34:37;23.13;;;15.70;;
60038;SDS011;45916;52.734;6.544;2023-04-28T04:37:02;20.27;;;15.30;;
60038;SDS011;45916;52.734;6.544;2023-04-28T04:39:28;20.63;;;15.18;;
60038;SDS011;45916;52.734;6.544;2023-04-28T04:41:54;22.13;;;16.63;;
60038;SDS011;45916;52.734;6.544;2023-04-28T04:44:19;19.10;;;15.32;;
60038;SDS011;45916;52.734;6.544;2023-04-28T04:46:45;18.55;;;14.88;;
60038;SDS011;45916;52.734;6.544;2023-04-28T04:49:12;21.33;;;15.68;;
60038;SDS011;45916;52.734;6.544;2023-04-28T04:51:37;21.73;;;15.65;;
60038;SDS011;45916;52.734;6.544;2023-04-28T04:54:03;19.83;;;15.57;;
60038;SDS011;45916;52.734;6.544;2023-04-28T04:56:29;21.27;;;15.85;;
60038;SDS011;45916;52.734;6.544;2023-04-28T04:58:55;20.35;;;15.70;;
60038;SDS011;45916;52.734;6.544;2023-04-28T05:01:21;21.00;;;15.48;;
60038;SDS011;45916;52.734;6.544;2023-04-28T05:03:47;19.88;;;14.30;;
60038;SDS011;45916;52.734;6.544;2023-04-28T05:06:12;20.85;;;15.10;;
60038;SDS011;45916;52.734;6.544;2023-04-28T05:08:38;21.48;;;15.55;;
60038;SDS011;45916;52.734;6.544;2023-04-28T05:11:04;21.25;;;14.70;;
60038;SDS011;45916;52.734;6.544;2023-04-28T05:13:29;19.90;;;14.43;;
60038;SDS011;45916;52.734;6.544;2023-04-28T05:15:55;19.65;;;14.57;;
60038;SDS011;45916;52.734;6.544;2023-04-28T05:18:21;20.77;;;15.45;;
60038;SDS011;45916;52.734;6.544;2023-04-28T05:20:46;21.75;;;15.93;;
60038;SDS011;45916;52.734;6.544;2023-04-28T05:23:12;20.58;;;14.65;;
60038;SDS011;45916;52.734;6.544;2023-04-28T05:25:38;20.40;;;14.73;;
60038;SDS011;45916;52.734;6.544;2023-04-28T05:28:04;19.45;;;14.90;;
60038;SDS011;45916;52.734;6.544;2023-04-28T05:32:58;19.58;;;14.70;;
60038;SDS011;45916;52.734;6.544;2023-04-28T05:35:24;20.90;;;15.60;;
60038;SDS011;45916;52.734;6.544;2023-04-28T05:37:50;19.98;;;14.75;;
60038;SDS011;45916;52.734;6.544;2023-04-28T05:40:16;20.27;;;15.10;;
60038;SDS011;45916;52.734;6.544;2023-04-28T05:42:42;18.15;;;13.63;;
60038;SDS011;45916;52.734;6.544;2023-04-28T05:45:08;17.70;;;13.98;;
60038;SDS011;45916;52.734;6.544;2023-04-28T05:47:37;20.65;;;15.50;;
60038;SDS011;45916;52.734;6.544;2023-04-28T05:50:03;22.67;;;15.57;;
60038;SDS011;45916;52.734;6.544;2023-04-28T05:52:29;18.52;;;14.30;;
60038;SDS011;45916;52.734;6.544;2023-04-28T05:54:54;18.63;;;14.52;;
60038;SDS011;45916;52.734;6.544;2023-04-28T05:57:20;17.67;;;14.70;;
60038;SDS011;45916;52.734;6.544;2023-04-28T05:59:49;19.48;;;14.63;;
60038;SDS011;45916;52.734;6.544;2023-04-28T06:02:15;19.52;;;15.70;;
60038;SDS011;45916;52.734;6.544;2023-04-28T06:04:41;21.30;;;14.85;;
60038;SDS011;45916;52.734;6.544;2023-04-28T06:07:08;17.85;;;14.43;;
60038;SDS011;45916;52.734;6.544;2023-04-28T06:09:34;19.15;;;13.98;;
60038;SDS011;45916;52.734;6.544;2023-04-28T06:12:00;19.20;;;14.30;;
60038;SDS011;45916;52.734;6.544;2023-04-28T06:14:27;19.58;;;13.63;;
60038;SDS011;45916;52.734;6.544;2023-04-28T06:16:53;20.38;;;14.98;;
60038;SDS011;45916;52.734;6.544;2023-04-28T06:19:19;20.00;;;14.20;;
60038;SDS011;45916;52.734;6.544;2023-04-28T06:21:45;17.52;;;14.05;;
60038;SDS011;45916;52.734;6.544;2023-04-28T06:24:11;18.98;;;12.65;;
60038;SDS011;45916;52.734;6.544;2023-04-28T06:26:36;17.88;;;13.05;;
60038;SDS011;45916;52.734;6.544;2023-04-28T06:29:03;18.13;;;14.15;;
60038;SDS011;45916;52.734;6.544;2023-04-28T06:31:28;18.05;;;13.65;;
60038;SDS011;45916;52.734;6.544;2023-04-28T06:33:54;18.45;;;12.93;;
60038;SDS011;45916;52.734;6.544;2023-04-28T06:36:20;18.33;;;12.75;;
60038;SDS011;45916;52.734;6.544;2023-04-28T06:38:46;17.50;;;14.05;;
60038;SDS011;45916;52.734;6.544;2023-04-28T06:41:11;17.23;;;13.32;;
60038;SDS011;45916;52.734;6.544;2023-04-28T06:43:37;16.73;;;14.18;;
60038;SDS011;45916;52.734;6.544;2023-04-28T06:46:03;16.90;;;13.35;;
60038;SDS011;45916;52.734;6.544;2023-04-28T06:48:29;17.88;;;13.43;;
60038;SDS011;45916;52.734;6.544;2023-04-28T06:50:55;16.45;;;13.60;;
60038;SDS011;45916;52.734;6.544;2023-04-28T06:53:20;19.02;;;13.23;;
60038;SDS011;45916;52.734;6.544;2023-04-28T06:55:46;18.80;;;13.55;;
60038;SDS011;45916;52.734;6.544;2023-04-28T06:58:12;17.75;;;13.60;;
60038;SDS011;45916;52.734;6.544;2023-04-28T07:00:37;15.07;;;12.65;;
60038;SDS011;45916;52.734;6.544;2023-04-28T07:03:03;16.20;;;12.95;;
60038;SDS011;45916;52.734;6.544;2023-04-28T07:05:29;16.90;;;12.35;;
60038;SDS011;45916;52.734;6.544;2023-04-28T07:07:55;18.35;;;14.00;;
60038;SDS011;45916;52.734;6.544;2023-04-28T07:10:20;17.40;;;13.63;;
60038;SDS011;45916;52.734;6.544;2023-04-28T07:12:46;16.52;;;13.05;;
60038;SDS011;45916;52.734;6.544;2023-04-28T07:15:14;16.17;;;12.77;;
60038;SDS011;45916;52.734;6.544;2023-04-28T07:17:39;15.45;;;12.80;;
60038;SDS011;45916;52.734;6.544;2023-04-28T07:20:05;14.93;;;12.50;;
60038;SDS011;45916;52.734;6.544;2023-04-28T07:22:31;18.35;;;13.02;;
60038;SDS011;45916;52.734;6.544;2023-04-28T07:24:57;16.95;;;13.52;;
60038;SDS011;45916;52.734;6.544;2023-04-28T07:27:23;18.33;;;13.13;;
60038;SDS011;45916;52.734;6.544;2023-04-28T07:29:48;16.42;;;13.18;;
60038;SDS011;45916;52.734;6.544;2023-04-28T07:32:14;16.70;;;12.80;;
60038;SDS011;45916;52.734;6.544;2023-04-28T07:34:40;15.23;;;12.00;;
60038;SDS011;45916;52.734;6.544;2023-04-28T07:37:06;15.43;;;12.43;;
60038;SDS011;45916;52.734;6.544;2023-04-28T07:39:32;15.68;;;11.88;;
60038;SDS011;45916;52.734;6.544;2023-04-28T07:41:59;14.88;;;12.60;;
60038;SDS011;45916;52.734;6.544;2023-04-28T07:44:26;17.25;;;12.38;;
60038;SDS011;45916;52.734;6.544;2023-04-28T07:46:53;14.77;;;12.00;;
60038;SDS011;45916;52.734;6.544;2023-04-28T07:49:18;15.18;;;11.55;;
60038;SDS011;45916;52.734;6.544;2023-04-28T07:51:44;16.23;;;12.40;;
60038;SDS011;45916;52.734;6.544;2023-04-28T07:54:10;18.20;;;12.35;;
60038;SDS011;45916;52.734;6.544;2023-04-28T07:56:36;15.77;;;12.82;;
60038;SDS011;45916;52.734;6.544;2023-04-28T07:59:01;14.40;;;12.25;;
60038;SDS011;45916;52.734;6.544;2023-04-28T08:01:27;14.45;;;11.80;;
60038;SDS011;45916;52.734;6.544;2023-04-28T08:03:53;13.82;;;11.75;;
60038;SDS011;45916;52.734;6.544;2023-04-28T08:06:18;16.55;;;12.45;;
60038;SDS011;45916;52.734;6.544;2023-04-28T08:08:44;16.63;;;13.00;;
60038;SDS011;45916;52.734;6.544;2023-04-28T08:11:11;16.27;;;12.75;;
60038;SDS011;45916;52.734;6.544;2023-04-28T08:13:36;14.88;;;12.63;;
60038;SDS011;45916;52.734;6.544;2023-04-28T08:16:02;16.27;;;12.75;;
60038;SDS011;45916;52.734;6.544;2023-04-28T08:18:28;20.52;;;12.65;;
60038;SDS011;45916;52.734;6.544;2023-04-28T08:20:54;14.23;;;12.55;;
60038;SDS011;45916;52.734;6.544;2023-04-28T08:23:19;15.80;;;12.80;;
60038;SDS011;45916;52.734;6.544;2023-04-28T08:25:45;15.38;;;12.20;;
60038;SDS011;45916;52.734;6.544;2023-04-28T08:28:11;16.50;;;11.90;;
60038;SDS011;45916;52.734;6.544;2023-04-28T08:30:37;13.82;;;12.13;;
60038;SDS011;45916;52.734;6.544;2023-04-28T08:33:04;14.75;;;12.23;;
60038;SDS011;45916;52.734;6.544;2023-04-28T08:35:30;14.43;;;11.82;;
60038;SDS011;45916;52.734;6.544;2023-04-28T08:37:56;14.88;;;12.98;;
60038;SDS011;45916;52.734;6.544;2023-04-28T08:40:22;15.15;;;12.30;;
60038;SDS011;45916;52.734;6.544;2023-04-28T08:42:49;14.73;;;12.90;;
60038;SDS011;45916;52.734;6.544;2023-04-28T08:45:15;15.32;;;12.55;;
60038;SDS011;45916;52.734;6.544;2023-04-28T08:47:41;15.63;;;13.10;;
60038;SDS011;45916;52.734;6.544;2023-04-28T08:50:12;16.65;;;13.13;;
60038;SDS011;45916;52.734;6.544;2023-04-28T08:52:41;17.48;;;13.10;;
60038;SDS011;45916;52.734;6.544;2023-04-28T08:55:10;14.32;;;12.93;;
60038;SDS011;45916;52.734;6.544;2023-04-28T08:57:38;14.70;;;12.43;;
60038;SDS011;45916;52.734;6.544;2023-04-28T09:00:07;14.77;;;12.75;;
60038;SDS011;45916;52.734;6.544;2023-04-28T09:02:34;13.27;;;11.80;;
60038;SDS011;45916;52.734;6.544;2023-04-28T09:05:02;14.88;;;12.55;;
60038;SDS011;45916;52.734;6.544;2023-04-28T09:07:37;15.65;;;11.75;;
60038;SDS011;45916;52.734;6.544;2023-04-28T09:10:17;16.90;;;13.40;;
60038;SDS011;45916;52.734;6.544;2023-04-28T09:12:44;15.63;;;12.80;;
60038;SDS011;45916;52.734;6.544;2023-04-28T09:15:24;17.38;;;12.70;;
60038;SDS011;45916;52.734;6.544;2023-04-28T09:17:57;15.68;;;13.30;;
60038;SDS011;45916;52.734;6.544;2023-04-28T09:20:26;15.68;;;12.98;;
60038;SDS011;45916;52.734;6.544;2023-04-28T09:23:11;13.77;;;12.38;;
60038;SDS011;45916;52.734;6.544;2023-04-28T09:25:39;16.02;;;12.60;;
60038;SDS011;45916;52.734;6.544;2023-04-28T09:28:38;15.68;;;12.85;;
60038;SDS011;45916;52.734;6.544;2023-04-28T09:30:58;15.38;;;13.18;;
60038;SDS011;45916;52.734;6.544;2023-04-28T09:33:24;14.77;;;13.05;;
60038;SDS011;45916;52.734;6.544;2023-04-28T09:35:50;16.23;;;13.18;;
60038;SDS011;45916;52.734;6.544;2023-04-28T09:38:17;15.43;;;13.30;;
60038;SDS011;45916;52.734;6.544;2023-04-28T09:46:00;15.30;;;13.15;;
60038;SDS011;45916;52.734;6.544;2023-04-28T09:48:30;13.95;;;12.52;;
60038;SDS011;45916;52.734;6.544;2023-04-28T09:51:03;13.90;;;12.38;;
60038;SDS011;45916;52.734;6.544;2023-04-28T09:53:30;15.75;;;12.98;;
60038;SDS011;45916;52.734;6.544;2023-04-28T09:55:58;19.67;;;12.27;;
60038;SDS011;45916;52.734;6.544;2023-04-28T09:58:25;14.82;;;13.30;;
60038;SDS011;45916;52.734;6.544;2023-04-28T10:00:56;13.82;;;11.93;;
60038;SDS011;45916;52.734;6.544;2023-04-28T10:03:30;14.63;;;12.48;;
60038;SDS011;45916;52.734;6.544;2023-04-28T10:05:56;14.80;;;12.10;;
60038;SDS011;45916;52.734;6.544;2023-04-28T10:08:23;14.43;;;11.80;;
60038;SDS011;45916;52.734;6.544;2023-04-28T10:10:51;14.48;;;11.55;;
60038;SDS011;45916;52.734;6.544;2023-04-28T10:13:19;14.43;;;11.50;;
60038;SDS011;45916;52.734;6.544;2023-04-28T10:15:46;13.43;;;11.68;;
60038;SDS011;45916;52.734;6.544;2023-04-28T10:18:12;12.38;;;11.13;;
60038;SDS011;45916;52.734;6.544;2023-04-28T10:20:40;13.57;;;11.98;;
60038;SDS011;45916;52.734;6.544;2023-04-28T10:26:12;13.38;;;11.98;;
60038;SDS011;45916;52.734;6.544;2023-04-28T10:28:46;14.80;;;12.90;;
60038;SDS011;45916;52.734;6.544;2023-04-28T10:31:15;14.70;;;12.05;;
60038;SDS011;45916;52.734;6.544;2023-04-28T10:33:42;13.73;;;11.40;;
60038;SDS011;45916;52.734;6.544;2023-04-28T10:36:09;13.77;;;11.65;;
60038;SDS011;45916;52.734;6.544;2023-04-28T10:38:36;13.50;;;11.45;;
60038;SDS011;45916;52.734;6.544;2023-04-28T10:41:35;11.93;;;10.73;;
60038;SDS011;45916;52.734;6.544;2023-04-28T10:44:00;13.63;;;12.25;;
60038;SDS011;45916;52.734;6.544;2023-04-28T10:47:10;13.93;;;12.30;;
60038;SDS011;45916;52.734;6.544;2023-04-28T11:00:40;15.18;;;13.57;;
60038;SDS011;45916;52.734;6.544;2023-04-28T11:03:07;15.75;;;13.82;;
60038;SDS011;45916;52.734;6.544;2023-04-28T11:05:32;16.45;;;12.32;;
60038;SDS011;45916;52.734;6.544;2023-04-28T11:13:39;14.73;;;11.68;;
60038;SDS011;45916;52.734;6.544;2023-04-28T11:16:05;12.75;;;10.70;;
60038;SDS011;45916;52.734;6.544;2023-04-28T11:18:47;12.70;;;10.82;;
60038;SDS011;45916;52.734;6.544;2023-04-28T11:21:18;15.20;;;11.73;;
60038;SDS011;45916;52.734;6.544;2023-04-28T11:23:45;12.07;;;10.50;;
60038;SDS011;45916;52.734;6.544;2023-04-28T11:26:11;13.25;;;9.95;;
60038;SDS011;45916;52.734;6.544;2023-04-28T11:28:47;11.98;;;10.30;;
60038;SDS011;45916;52.734;6.544;2023-04-28T11:31:13;12.93;;;10.05;;
60038;SDS011;45916;52.734;6.544;2023-04-28T11:33:48;13.07;;;10.60;;
60038;SDS011;45916;52.734;6.544;2023-04-28T11:36:35;13.48;;;10.50;;
60038;SDS011;45916;52.734;6.544;2023-04-28T11:39:08;12.00;;;10.70;;
60038;SDS011;45916;52.734;6.544;2023-04-28T11:44:15;12.77;;;11.35;;
60038;SDS011;45916;52.734;6.544;2023-04-28T11:46:49;12.25;;;10.90;;
60038;SDS011;45916;52.734;6.544;2023-04-28T11:49:26;14.65;;;11.27;;
60038;SDS011;45916;52.734;6.544;2023-04-28T11:51:57;14.77;;;11.75;;
60038;SDS011;45916;52.734;6.544;2023-04-28T11:54:29;14.63;;;12.98;;
60038;SDS011;45916;52.734;6.544;2023-04-28T11:56:56;15.13;;;13.52;;
60038;SDS011;45916;52.734;6.544;2023-04-28T11:59:26;17.25;;;15.10;;
60038;SDS011;45916;52.734;6.544;2023-04-28T12:01:56;16.83;;;15.13;;
60038;SDS011;45916;52.734;6.544;2023-04-28T12:07:06;19.92;;;17.77;;
60038;SDS011;45916;52.734;6.544;2023-04-28T12:09:34;22.33;;;19.85;;
60038;SDS011;45916;52.734;6.544;2023-04-28T12:12:05;25.07;;;21.17;;
60038;SDS011;45916;52.734;6.544;2023-04-28T12:14:32;27.40;;;22.75;;
60038;SDS011;45916;52.734;6.544;2023-04-28T12:17:37;26.80;;;24.10;;
60038;SDS011;45916;52.734;6.544;2023-04-28T12:20:06;28.13;;;25.08;;
60038;SDS011;45916;52.734;6.544;2023-04-28T12:22:48;27.27;;;24.40;;
60038;SDS011;45916;52.734;6.544;2023-04-28T12:25:16;28.33;;;24.63;;
60038;SDS011;45916;52.734;6.544;2023-04-28T12:30:30;31.45;;;28.20;;
60038;SDS011;45916;52.734;6.544;2023-04-28T12:35:26;31.15;;;27.33;;
60038;SDS011;45916;52.734;6.544;2023-04-28T12:37:53;30.38;;;27.25;;
60038;SDS011;45916;52.734;6.544;2023-04-28T12:40:21;34.08;;;30.60;;
60038;SDS011;45916;52.734;6.544;2023-04-28T12:42:47;31.60;;;28.27;;
60038;SDS011;45916;52.734;6.544;2023-04-28T12:45:13;33.83;;;30.30;;
60038;SDS011;45916;52.734;6.544;2023-04-28T12:47:40;33.20;;;29.75;;
60038;SDS011;45916;52.734;6.544;2023-04-28T12:50:06;35.17;;;31.58;;
60038;SDS011;45916;52.734;6.544;2023-04-28T12:52:33;36.45;;;32.65;;
60038;SDS011;45916;52.734;6.544;2023-04-28T12:54:59;38.03;;;34.33;;
60038;SDS011;45916;52.734;6.544;2023-04-28T12:57:28;38.65;;;34.85;;
60038;SDS011;45916;52.734;6.544;2023-04-28T12:59:54;37.83;;;34.03;;
60038;SDS011;45916;52.734;6.544;2023-04-28T13:02:21;40.40;;;36.35;;
60038;SDS011;45916;52.734;6.544;2023-04-28T13:04:47;42.88;;;38.42;;
60038;SDS011;45916;52.734;6.544;2023-04-28T13:07:13;42.22;;;37.85;;
60038;SDS011;45916;52.734;6.544;2023-04-28T13:09:40;42.83;;;37.80;;
60038;SDS011;45916;52.734;6.544;2023-04-28T13:12:09;42.90;;;38.45;;
60038;SDS011;45916;52.734;6.544;2023-04-28T13:14:38;44.08;;;39.58;;
60038;SDS011;45916;52.734;6.544;2023-04-28T13:17:04;44.38;;;39.65;;
60038;SDS011;45916;52.734;6.544;2023-04-28T13:19:30;41.78;;;37.35;;
60038;SDS011;45916;52.734;6.544;2023-04-28T13:21:58;43.28;;;38.65;;
60038;SDS011;45916;52.734;6.544;2023-04-28T13:24:24;46.15;;;41.10;;
60038;SDS011;45916;52.734;6.544;2023-04-28T13:26:50;47.10;;;42.10;;
60038;SDS011;45916;52.734;6.544;2023-04-28T13:29:16;45.50;;;41.00;;
60038;SDS011;45916;52.734;6.544;2023-04-28T13:31:42;46.15;;;41.35;;
60038;SDS011;45916;52.734;6.544;2023-04-28T13:34:08;47.88;;;42.88;;
60038;SDS011;45916;52.734;6.544;2023-04-28T13:36:39;50.42;;;45.15;;
60038;SDS011;45916;52.734;6.544;2023-04-28T13:39:06;49.25;;;44.08;;
60038;SDS011;45916;52.734;6.544;2023-04-28T13:41:35;50.35;;;44.95;;
60038;SDS011;45916;52.734;6.544;2023-04-28T13:44:01;46.90;;;42.08;;
60038;SDS011;45916;52.734;6.544;2023-04-28T13:46:27;45.83;;;41.05;;
60038;SDS011;45916;52.734;6.544;2023-04-28T13:48:53;47.13;;;41.92;;
60038;SDS011;45916;52.734;6.544;2023-04-28T13:51:19;50.65;;;45.25;;
60038;SDS011;45916;52.734;6.544;2023-04-28T13:53:44;46.97;;;42.05;;
60038;SDS011;45916;52.734;6.544;2023-04-28T13:56:10;48.22;;;43.22;;
60038;SDS011;45916;52.734;6.544;2023-04-28T13:58:36;48.03;;;42.88;;
60038;SDS011;45916;52.734;6.544;2023-04-28T14:01:02;47.40;;;42.55;;
60038;SDS011;45916;52.734;6.544;2023-04-28T14:03:28;46.72;;;41.90;;
60038;SDS011;45916;52.734;6.544;2023-04-28T14:05:55;48.83;;;43.63;;
60038;SDS011;45916;52.734;6.544;2023-04-28T14:08:22;45.78;;;41.17;;
60038;SDS011;45916;52.734;6.544;2023-04-28T14:10:49;44.45;;;39.83;;
60038;SDS011;45916;52.734;6.544;2023-04-28T14:13:15;44.30;;;39.65;;
60038;SDS011;45916;52.734;6.544;2023-04-28T14:15:42;40.78;;;36.40;;
60038;SDS011;45916;52.734;6.544;2023-04-28T14:18:09;44.70;;;40.00;;
60038;SDS011;45916;52.734;6.544;2023-04-28T14:20:35;47.13;;;42.22;;
60038;SDS011;45916;52.734;6.544;2023-04-28T14:23:01;43.13;;;38.33;;
60038;SDS011;45916;52.734;6.544;2023-04-28T14:25:27;42.50;;;38.25;;
60038;SDS011;45916;52.734;6.544;2023-04-28T14:27:53;40.25;;;36.25;;
60038;SDS011;45916;52.734;6.544;2023-04-28T14:30:19;37.65;;;33.95;;
60038;SDS011;45916;52.734;6.544;2023-04-28T14:32:46;39.60;;;35.50;;
60038;SDS011;45916;52.734;6.544;2023-04-28T14:35:12;40.85;;;36.45;;
60038;SDS011;45916;52.734;6.544;2023-04-28T14:37:39;38.47;;;34.60;;
60038;SDS011;45916;52.734;6.544;2023-04-28T14:40:05;38.75;;;34.65;;
60038;SDS011;45916;52.734;6.544;2023-04-28T14:42:32;38.13;;;34.03;;
60038;SDS011;45916;52.734;6.544;2023-04-28T14:45:00;38.45;;;34.65;;
60038;SDS011;45916;52.734;6.544;2023-04-28T14:47:33;36.58;;;32.70;;
60038;SDS011;45916;52.734;6.544;2023-04-28T14:50:01;37.13;;;33.15;;
60038;SDS011;45916;52.734;6.544;2023-04-28T14:52:27;33.45;;;30.15;;
60038;SDS011;45916;52.734;6.544;2023-04-28T14:54:57;35.50;;;32.03;;
60038;SDS011;45916;52.734;6.544;2023-04-28T14:57:24;32.40;;;29.25;;
60038;SDS011;45916;52.734;6.544;2023-04-28T14:59:51;32.65;;;29.40;;